createdAt,value
2023-07-07T00:00:32.112Z,14.44
2023-07-07T00:03:19.858Z,14.39
2023-07-07T00:05:48.772Z,14.35
2023-07-07T00:08:16.473Z,14.33
2023-07-07T00:10:44.233Z,14.31
2023-07-07T00:13:13.870Z,14.30
2023-07-07T00:15:48.275Z,14.29
2023-07-07T00:18:27.622Z,14.26
2023-07-07T00:20:57.929Z,14.22
2023-07-07T00:23:26.637Z,14.17
2023-07-07T00:25:59.569Z,14.16
2023-07-07T00:28:27.327Z,14.14
2023-07-07T00:30:55.098Z,14.13
2023-07-07T00:33:23.956Z,14.13
2023-07-07T00:35:52.095Z,14.11
2023-07-07T00:38:20.766Z,14.10
2023-07-07T00:40:52.222Z,14.09
2023-07-07T00:43:21.592Z,14.07
2023-07-07T00:45:49.413Z,14.04
2023-07-07T00:48:21.440Z,14.03
2023-07-07T00:50:55.881Z,14.02
2023-07-07T00:53:23.903Z,14.00
2023-07-07T00:55:58.251Z,13.99
2023-07-07T00:58:26.626Z,13.98
2023-07-07T01:01:01.164Z,13.98
2023-07-07T01:03:52.852Z,13.97
2023-07-07T01:06:25.369Z,13.95
2023-07-07T01:08:59.728Z,13.92
2023-07-07T01:11:29.223Z,13.90
2023-07-07T01:14:02.772Z,13.91
2023-07-07T01:16:39.572Z,13.90
2023-07-07T01:19:38.816Z,13.89
2023-07-07T01:22:27.820Z,13.87
2023-07-07T01:25:13.516Z,13.80
2023-07-07T01:27:54.625Z,13.78
2023-07-07T01:30:48.561Z,13.78
2023-07-07T01:33:18.299Z,13.76
2023-07-07T01:35:45.982Z,13.74
2023-07-07T01:38:35.404Z,13.75
2023-07-07T01:41:15.477Z,13.75
2023-07-07T01:44:17.696Z,13.76
2023-07-07T01:46:53.978Z,13.76
2023-07-07T01:49:27.313Z,13.76
2023-07-07T01:52:06.318Z,13.77
2023-07-07T01:54:38.168Z,13.76
2023-07-07T01:57:07.581Z,13.76
2023-07-07T01:59:36.234Z,13.74
2023-07-07T02:02:05.590Z,13.73
2023-07-07T02:04:33.353Z,13.73
2023-07-07T02:07:01.109Z,13.72
2023-07-07T02:09:31.109Z,13.72
2023-07-07T02:11:58.944Z,13.72
2023-07-07T02:14:26.692Z,13.71
2023-07-07T02:16:54.410Z,13.71
2023-07-07T02:19:23.127Z,13.70
2023-07-07T02:21:52.326Z,13.69
2023-07-07T02:24:20.112Z,13.67
2023-07-07T02:26:47.926Z,13.64
2023-07-07T02:29:15.543Z,13.60
2023-07-07T02:31:43.258Z,13.58
2023-07-07T02:34:10.957Z,13.56
2023-07-07T02:36:38.899Z,13.57
2023-07-07T02:39:06.602Z,13.60
2023-07-07T02:41:34.503Z,13.62
2023-07-07T02:44:02.214Z,13.62
2023-07-07T02:46:30.921Z,13.63
2023-07-07T02:48:58.742Z,13.63
2023-07-07T02:51:26.859Z,13.64
2023-07-07T02:53:54.722Z,13.64
2023-07-07T02:56:22.509Z,13.65
2023-07-07T02:58:50.549Z,13.65
2023-07-07T03:01:20.201Z,13.66
2023-07-07T03:03:52.295Z,13.68
2023-07-07T03:06:22.852Z,13.68
2023-07-07T03:08:52.828Z,13.68
2023-07-07T03:11:23.459Z,13.68
2023-07-07T03:13:52.247Z,13.65
2023-07-07T03:16:31.835Z,13.68
2023-07-07T03:19:07.631Z,13.69
2023-07-07T03:21:39.650Z,13.71
2023-07-07T03:24:24.821Z,13.72
2023-07-07T03:26:52.553Z,13.75
2023-07-07T03:29:20.973Z,13.79
2023-07-07T03:31:49.275Z,13.86
2023-07-07T03:34:17.909Z,13.91
2023-07-07T03:36:46.676Z,13.96
2023-07-07T03:39:16.438Z,14.03
2023-07-07T03:41:45.827Z,14.09
2023-07-07T03:44:14.025Z,14.16
2023-07-07T03:46:41.881Z,14.23
2023-07-07T03:49:10.123Z,14.34
2023-07-07T03:51:40.664Z,14.42
2023-07-07T03:54:09.820Z,14.52
2023-07-07T03:56:38.942Z,14.64
2023-07-07T03:59:06.727Z,14.75
2023-07-07T04:01:34.458Z,14.85
2023-07-07T04:04:02.825Z,14.97
2023-07-07T04:06:31.106Z,15.11
2023-07-07T04:08:58.780Z,15.24
2023-07-07T04:11:26.467Z,15.37
2023-07-07T04:13:54.392Z,15.51
2023-07-07T04:16:26.786Z,15.64
2023-07-07T04:18:56.268Z,15.76
2023-07-07T04:21:27.154Z,15.88
2023-07-07T04:23:57.061Z,16.00
2023-07-07T04:26:26.377Z,16.12
2023-07-07T04:28:55.356Z,16.23
2023-07-07T04:31:27.260Z,16.37
2023-07-07T04:33:55.464Z,16.55
2023-07-07T04:36:23.249Z,16.75
2023-07-07T04:38:51.114Z,16.91
2023-07-07T04:41:26.798Z,17.06
2023-07-07T04:43:58.103Z,17.22
2023-07-07T04:46:28.719Z,17.56
2023-07-07T04:48:56.930Z,17.81
2023-07-07T04:51:25.009Z,17.95
2023-07-07T04:53:52.732Z,18.07
2023-07-07T04:56:22.842Z,18.18
2023-07-07T04:58:53.450Z,18.28
2023-07-07T05:01:23.957Z,18.37
2023-07-07T05:03:53.408Z,18.45
2023-07-07T05:06:22.533Z,18.58
2023-07-07T05:08:50.855Z,18.80
2023-07-07T05:11:20.740Z,19.04
2023-07-07T05:13:50.099Z,19.14
2023-07-07T05:16:20.583Z,19.22
2023-07-07T05:18:48.681Z,19.32
2023-07-07T05:21:18.246Z,19.43
2023-07-07T05:23:45.975Z,19.50
2023-07-07T05:26:13.842Z,19.57
2023-07-07T05:28:41.578Z,19.65
2023-07-07T05:31:09.640Z,19.71
2023-07-07T05:33:40.923Z,19.76
2023-07-07T05:36:12.007Z,19.82
2023-07-07T05:38:41.475Z,19.85
2023-07-07T05:41:10.749Z,19.89
2023-07-07T05:43:38.893Z,19.92
2023-07-07T05:46:15.451Z,19.98
2023-07-07T05:48:44.115Z,20.00
2023-07-07T05:51:14.646Z,19.99
2023-07-07T05:53:44.592Z,20.00
2023-07-07T05:56:23.667Z,20.09
2023-07-07T05:58:54.089Z,20.22
2023-07-07T06:01:22.331Z,20.21
2023-07-07T06:03:50.201Z,20.21
2023-07-07T06:06:18.044Z,20.19
2023-07-07T06:08:46.014Z,20.18
2023-07-07T06:11:13.655Z,20.16
2023-07-07T06:13:41.385Z,20.12
2023-07-07T06:16:09.228Z,20.09
2023-07-07T06:18:37.179Z,20.04
2023-07-07T06:21:05.214Z,19.99
2023-07-07T06:23:34.302Z,19.94
2023-07-07T06:26:02.580Z,19.93
2023-07-07T06:28:30.889Z,20.00
2023-07-07T06:30:59.029Z,20.11
2023-07-07T06:33:27.099Z,20.22
2023-07-07T06:35:54.782Z,20.34
2023-07-07T06:38:22.449Z,20.42
2023-07-07T06:40:50.306Z,20.49
2023-07-07T06:43:20.301Z,20.62
2023-07-07T06:45:52.873Z,20.81
2023-07-07T06:48:20.602Z,20.93
2023-07-07T06:50:49.352Z,21.12
2023-07-07T06:53:17.332Z,21.31
2023-07-07T06:55:45.053Z,21.48
2023-07-07T06:58:14.070Z,21.60
2023-07-07T07:00:44.364Z,21.68
2023-07-07T07:03:12.299Z,21.73
2023-07-07T07:05:41.041Z,21.80
2023-07-07T07:08:09.049Z,21.87
2023-07-07T07:10:36.958Z,21.93
2023-07-07T07:13:05.081Z,22.00
2023-07-07T07:15:32.945Z,22.05
2023-07-07T07:18:00.859Z,22.10
2023-07-07T07:20:28.681Z,22.18
2023-07-07T07:22:56.498Z,22.25
2023-07-07T07:25:24.212Z,22.33
2023-07-07T07:27:51.984Z,22.48
2023-07-07T07:30:19.849Z,22.68
2023-07-07T07:32:47.842Z,22.98
2023-07-07T07:35:16.426Z,23.37
2023-07-07T07:37:44.362Z,23.84
2023-07-07T07:40:12.570Z,24.38
2023-07-07T07:42:40.837Z,25.00
2023-07-07T07:45:10.014Z,25.63
2023-07-07T07:47:37.744Z,26.12
2023-07-07T07:50:06.333Z,26.56
2023-07-07T07:52:34.080Z,27.11
2023-07-07T07:55:01.802Z,27.46
2023-07-07T07:57:29.571Z,27.98
2023-07-07T07:59:57.555Z,28.56
2023-07-07T08:02:25.370Z,29.04
2023-07-07T08:04:53.300Z,29.51
2023-07-07T08:07:21.981Z,29.96
2023-07-07T08:09:49.674Z,30.03
2023-07-07T08:12:17.419Z,29.62
2023-07-07T08:14:45.190Z,29.27
2023-07-07T08:17:14.509Z,29.26
2023-07-07T08:19:43.598Z,29.52
2023-07-07T08:22:17.553Z,29.87
2023-07-07T08:24:48.603Z,30.17
2023-07-07T08:29:47.921Z,30.44
2023-07-07T08:32:22.597Z,30.61
2023-07-07T08:34:55.090Z,30.72
2023-07-07T08:37:25.163Z,30.80
2023-07-07T08:39:53.127Z,31.02
2023-07-07T08:42:25.487Z,31.22
2023-07-07T08:44:53.944Z,31.34
2023-07-07T08:47:29.871Z,31.16
2023-07-07T08:49:57.519Z,30.73
2023-07-07T08:53:07.004Z,30.60
2023-07-07T08:55:40.683Z,30.53
2023-07-07T08:58:23.995Z,30.11
2023-07-07T09:01:14.603Z,30.11
2023-07-07T09:03:54.801Z,30.36
2023-07-07T09:06:25.672Z,30.49
2023-07-07T09:09:19.482Z,30.42
2023-07-07T09:11:59.234Z,30.43
2023-07-07T09:14:28.150Z,30.46
2023-07-07T09:16:59.966Z,30.23
2023-07-07T09:19:31.523Z,29.79
2023-07-07T09:22:22.225Z,29.23
2023-07-07T09:25:02.145Z,28.70
2023-07-07T09:27:42.850Z,28.57
2023-07-07T09:30:34.164Z,28.52
2023-07-07T09:33:02.072Z,28.49
2023-07-07T09:35:36.447Z,28.27
2023-07-07T09:38:28.104Z,27.95
2023-07-07T09:41:17.449Z,27.70
2023-07-07T09:44:17.511Z,27.75
2023-07-07T09:47:07.588Z,27.87
2023-07-07T09:49:45.147Z,28.05
2023-07-07T09:52:37.599Z,28.22
2023-07-07T09:55:26.950Z,28.28
2023-07-07T09:58:24.158Z,28.13
2023-07-07T10:00:54.906Z,28.03
2023-07-07T10:03:28.481Z,28.04
2023-07-07T10:05:59.393Z,27.95
2023-07-07T10:08:28.796Z,27.86
2023-07-07T10:13:54.151Z,27.91
2023-07-07T10:16:31.287Z,27.96
2023-07-07T10:19:06.073Z,27.84
2023-07-07T10:21:34.130Z,27.58
2023-07-07T10:24:05.157Z,27.27
2023-07-07T10:26:33.995Z,26.95
2023-07-07T10:29:03.874Z,26.67
2023-07-07T10:31:31.583Z,26.38
2023-07-07T10:34:04.768Z,26.30
2023-07-07T10:36:34.444Z,26.38
2023-07-07T10:39:02.245Z,26.48
2023-07-07T10:41:30.016Z,26.52
2023-07-07T10:43:57.821Z,26.57
2023-07-07T10:46:25.693Z,26.66
2023-07-07T10:48:56.968Z,26.82
2023-07-07T10:51:40.818Z,26.99
2023-07-07T10:54:14.874Z,27.07
2023-07-07T10:56:46.329Z,27.14
2023-07-07T10:59:39.366Z,27.09
2023-07-07T11:02:36.650Z,27.04
2023-07-07T11:05:21.809Z,27.06
2023-07-07T11:07:59.692Z,27.15
2023-07-07T11:10:43.285Z,27.17
2023-07-07T11:13:41.932Z,27.06
2023-07-07T11:16:22.355Z,27.05
2023-07-07T11:19:02.610Z,27.00
2023-07-07T11:21:38.667Z,26.90
2023-07-07T11:24:48.304Z,26.90
2023-07-07T11:27:24.727Z,26.94
2023-07-07T11:30:09.725Z,26.95
2023-07-07T11:32:47.202Z,26.86
2023-07-07T11:35:41.215Z,26.64
2023-07-07T11:38:29.690Z,26.44
2023-07-07T11:41:25.024Z,26.29
2023-07-07T11:43:55.379Z,26.32
2023-07-07T11:46:35.700Z,26.36
2023-07-07T11:49:32.986Z,26.40
2023-07-07T11:52:12.903Z,26.35
2023-07-07T11:55:14.419Z,26.32
2023-07-07T11:58:14.580Z,26.43
2023-07-07T12:00:50.082Z,26.55
2023-07-07T12:03:40.767Z,26.58
2023-07-07T12:06:30.129Z,26.72
2023-07-07T12:09:14.579Z,26.80
2023-07-07T12:11:50.233Z,26.78
2023-07-07T12:14:27.990Z,26.83
2023-07-07T12:16:57.657Z,26.88
2023-07-07T12:19:41.222Z,26.88
2023-07-07T12:22:15.012Z,26.68
2023-07-07T12:25:15.226Z,26.59
2023-07-07T12:27:45.807Z,26.64
2023-07-07T12:30:27.393Z,26.80
2023-07-07T12:32:55.909Z,26.98
2023-07-07T12:35:29.945Z,27.16
2023-07-07T12:38:06.065Z,27.34
2023-07-07T12:40:43.858Z,27.44
2023-07-07T12:43:25.424Z,27.44
2023-07-07T12:45:54.110Z,27.49
2023-07-07T12:48:23.783Z,27.65
2023-07-07T12:50:51.555Z,27.79
2023-07-07T12:53:33.658Z,27.90
2023-07-07T12:56:07.264Z,27.98
2023-07-07T12:58:38.117Z,27.88
2023-07-07T13:01:20.933Z,27.84
2023-07-07T13:03:55.041Z,27.87
2023-07-07T13:06:32.190Z,27.88
2023-07-07T13:09:18.138Z,27.85
2023-07-07T13:11:48.322Z,27.76
2023-07-07T13:14:29.520Z,27.64
2023-07-07T13:17:00.578Z,27.47
2023-07-07T13:19:28.840Z,27.24
2023-07-07T13:21:58.823Z,27.09
2023-07-07T13:24:39.667Z,26.99
2023-07-07T13:27:16.947Z,26.80
2023-07-07T13:29:45.797Z,26.69
2023-07-07T13:32:34.161Z,26.66
2023-07-07T13:35:04.297Z,26.65
2023-07-07T13:37:36.052Z,26.63
2023-07-07T13:40:05.086Z,26.62
2023-07-07T13:42:34.958Z,26.61
2023-07-07T13:45:13.449Z,26.58
2023-07-07T13:47:43.348Z,26.51
2023-07-07T13:50:21.688Z,26.48
2023-07-07T13:53:01.095Z,26.44
2023-07-07T13:55:32.207Z,26.42
2023-07-07T13:58:00.481Z,26.37
2023-07-07T14:00:34.605Z,26.35
2023-07-07T14:03:04.452Z,26.37
2023-07-07T14:05:35.382Z,26.41
2023-07-07T14:08:16.348Z,26.43
2023-07-07T14:10:46.551Z,26.44
2023-07-07T14:13:19.723Z,26.44
2023-07-07T14:15:56.312Z,26.43
2023-07-07T14:18:30.853Z,26.41
2023-07-07T14:20:59.705Z,26.41
2023-07-07T14:23:27.735Z,26.42
2023-07-07T14:25:57.947Z,26.40
2023-07-07T14:28:39.005Z,26.36
2023-07-07T14:31:09.951Z,26.33
2023-07-07T14:33:42.025Z,26.31
2023-07-07T14:36:23.653Z,26.30
2023-07-07T14:38:54.704Z,26.33
2023-07-07T14:41:24.437Z,26.37
2023-07-07T14:43:52.988Z,26.37
2023-07-07T14:46:27.417Z,26.38
2023-07-07T14:49:04.015Z,26.37
2023-07-07T14:51:43.173Z,26.37
2023-07-07T14:54:19.566Z,26.37
2023-07-07T14:56:52.516Z,26.36
2023-07-07T14:59:24.262Z,26.35
2023-07-07T15:01:57.018Z,26.34
2023-07-07T15:04:31.343Z,26.31
2023-07-07T15:07:01.078Z,26.20
2023-07-07T15:09:29.003Z,26.15
2023-07-07T15:11:56.962Z,26.16
2023-07-07T15:14:24.905Z,26.16
2023-07-07T15:16:52.703Z,26.14
2023-07-07T15:19:22.831Z,26.14
2023-07-07T15:21:51.445Z,26.15
2023-07-07T15:24:19.173Z,26.17
2023-07-07T15:26:47.573Z,26.20
2023-07-07T15:29:20.762Z,26.24
2023-07-07T15:31:49.501Z,26.26
2023-07-07T15:34:17.343Z,26.28
2023-07-07T15:36:45.075Z,26.31
2023-07-07T15:39:14.207Z,26.34
2023-07-07T15:41:42.527Z,26.36
2023-07-07T15:44:10.218Z,26.38
2023-07-07T15:46:46.395Z,26.37
2023-07-07T15:49:17.758Z,26.35
2023-07-07T15:51:47.001Z,26.34
2023-07-07T15:54:14.861Z,26.33
2023-07-07T15:56:44.919Z,26.32
2023-07-07T15:59:21.969Z,26.28
2023-07-07T16:01:51.569Z,26.23
2023-07-07T16:04:20.653Z,26.22
2023-07-07T16:06:49.670Z,26.23
2023-07-07T16:09:18.349Z,26.24
2023-07-07T16:11:46.239Z,26.24
2023-07-07T16:14:14.006Z,26.23
2023-07-07T16:16:44.254Z,26.21
2023-07-07T16:19:14.120Z,26.19
2023-07-07T16:21:42.997Z,26.15
2023-07-07T16:24:11.307Z,26.15
2023-07-07T16:26:41.179Z,26.13
2023-07-07T16:29:12.265Z,26.12
2023-07-07T16:31:40.640Z,26.10
2023-07-07T16:34:08.682Z,26.08
2023-07-07T16:36:36.403Z,26.07
2023-07-07T16:39:10.856Z,26.06
2023-07-07T16:41:38.520Z,26.04
2023-07-07T16:44:06.290Z,26.01
2023-07-07T16:46:34.106Z,25.98
2023-07-07T16:49:02.086Z,25.94
2023-07-07T16:51:29.768Z,25.92
2023-07-07T16:53:57.816Z,25.90
2023-07-07T16:56:31.818Z,25.88
2023-07-07T16:58:59.555Z,25.85
2023-07-07T17:01:30.973Z,25.82
2023-07-07T17:03:59.560Z,25.78
2023-07-07T17:06:29.931Z,25.74
2023-07-07T17:08:59.280Z,25.71
2023-07-07T17:11:28.824Z,25.68
2023-07-07T17:13:57.548Z,25.66
2023-07-07T17:16:27.839Z,25.64
2023-07-07T17:19:01.281Z,25.63
2023-07-07T17:21:30.370Z,25.60
2023-07-07T17:23:58.127Z,25.57
2023-07-07T17:26:28.831Z,25.55
2023-07-07T17:28:58.035Z,25.53
2023-07-07T17:31:28.098Z,25.51
2023-07-07T17:33:56.318Z,25.48
2023-07-07T17:36:26.372Z,25.45
2023-07-07T17:38:56.084Z,25.44
2023-07-07T17:41:26.441Z,25.42
2023-07-07T17:43:54.779Z,25.38
2023-07-07T17:46:22.768Z,25.35
2023-07-07T17:48:51.236Z,25.32
2023-07-07T17:51:19.246Z,25.30
2023-07-07T17:53:47.970Z,25.26
2023-07-07T17:56:24.620Z,25.22
2023-07-07T17:58:53.162Z,25.18
2023-07-07T18:01:21.341Z,25.14
2023-07-07T18:03:49.903Z,25.08
2023-07-07T18:06:22.363Z,25.02
2023-07-07T18:08:51.145Z,24.92
2023-07-07T18:11:27.682Z,24.81
2023-07-07T18:13:56.106Z,24.68
2023-07-07T18:16:32.384Z,24.54
2023-07-07T18:19:31.013Z,24.36
2023-07-07T18:21:56.060Z,24.16
2023-07-07T18:24:25.790Z,23.95
2023-07-07T18:26:56.079Z,23.73
2023-07-07T18:29:24.732Z,23.53
2023-07-07T18:31:52.871Z,23.35
2023-07-07T18:34:20.593Z,23.19
2023-07-07T18:36:49.862Z,23.04
2023-07-07T18:39:22.863Z,22.90
2023-07-07T18:41:51.104Z,22.74
2023-07-07T18:44:21.314Z,22.61
2023-07-07T18:46:52.870Z,22.45
2023-07-07T18:49:20.727Z,22.28
2023-07-07T18:51:48.636Z,22.12
2023-07-07T18:54:17.726Z,21.96
2023-07-07T18:56:47.952Z,21.77
2023-07-07T18:59:19.004Z,21.58
2023-07-07T19:01:47.776Z,21.38
2023-07-07T19:04:15.701Z,21.22
2023-07-07T19:06:44.306Z,21.06
2023-07-07T19:09:20.014Z,20.91
2023-07-07T19:11:53.466Z,20.75
2023-07-07T19:14:21.499Z,20.57
2023-07-07T19:16:51.692Z,20.43
2023-07-07T19:19:24.209Z,20.29
2023-07-07T19:21:51.956Z,20.14
2023-07-07T19:24:19.843Z,20.01
2023-07-07T19:26:55.068Z,19.87
2023-07-07T19:29:23.341Z,19.72
2023-07-07T19:31:52.054Z,19.60
2023-07-07T19:34:19.989Z,19.47
2023-07-07T19:36:48.275Z,19.36
2023-07-07T19:39:18.466Z,19.24
2023-07-07T19:41:47.597Z,19.13
2023-07-07T19:44:15.444Z,19.02
2023-07-07T19:46:44.777Z,18.91
2023-07-07T19:49:18.597Z,18.81
2023-07-07T19:51:47.456Z,18.71
2023-07-07T19:54:15.477Z,18.63
2023-07-07T19:56:44.345Z,18.55
2023-07-07T19:59:17.661Z,18.46
2023-07-07T20:01:46.892Z,18.37
2023-07-07T20:04:15.193Z,18.28
2023-07-07T20:06:44.749Z,18.22
2023-07-07T20:09:19.983Z,18.16
2023-07-07T20:11:48.678Z,18.06
2023-07-07T20:14:16.565Z,17.97
2023-07-07T20:16:48.999Z,17.90
2023-07-07T20:19:18.482Z,17.82
2023-07-07T20:21:46.162Z,17.76
2023-07-07T20:24:23.073Z,17.69
2023-07-07T20:26:56.291Z,17.60
2023-07-07T20:29:25.227Z,17.52
2023-07-07T20:31:53.324Z,17.47
2023-07-07T20:34:21.396Z,17.42
2023-07-07T20:36:49.172Z,17.37
2023-07-07T20:39:19.700Z,17.32
2023-07-07T20:41:48.925Z,17.25
2023-07-07T20:44:17.557Z,17.19
2023-07-07T20:46:46.711Z,17.12
2023-07-07T20:49:19.823Z,17.05
2023-07-07T20:51:51.845Z,16.99
2023-07-07T20:54:21.656Z,16.92
2023-07-07T20:56:49.628Z,16.87
2023-07-07T20:59:27.809Z,16.83
2023-07-07T21:01:56.839Z,16.77
2023-07-07T21:04:26.202Z,16.72
2023-07-07T21:06:54.209Z,16.68
2023-07-07T21:09:23.042Z,16.64
2023-07-07T21:11:51.015Z,16.61
2023-07-07T21:14:19.182Z,16.56
2023-07-07T21:16:49.221Z,16.52
2023-07-07T21:19:17.446Z,16.49
2023-07-07T21:21:45.199Z,16.46
2023-07-07T21:24:12.900Z,16.44
2023-07-07T21:26:40.850Z,16.42
2023-07-07T21:29:12.645Z,16.40
2023-07-07T21:31:40.927Z,16.37
2023-07-07T21:34:10.082Z,16.34
2023-07-07T21:36:40.138Z,16.31
2023-07-07T21:39:27.402Z,16.29
2023-07-07T21:44:26.703Z,16.21
2023-07-07T21:46:54.625Z,16.19
2023-07-07T21:49:22.278Z,16.16
2023-07-07T21:51:50.067Z,16.14
2023-07-07T21:54:17.818Z,16.10
2023-07-07T21:56:45.525Z,16.07
2023-07-07T21:59:21.898Z,16.04
2023-07-07T22:01:51.369Z,16.00
2023-07-07T22:04:19.346Z,15.96
2023-07-07T22:06:47.208Z,15.91
2023-07-07T22:09:16.975Z,15.88
2023-07-07T22:11:45.683Z,15.85
2023-07-07T22:14:13.646Z,15.83
2023-07-07T22:16:41.588Z,15.81
2023-07-07T22:19:13.188Z,15.78
2023-07-07T22:21:41.199Z,15.75
2023-07-07T22:24:09.978Z,15.72
2023-07-07T22:26:37.790Z,15.70
2023-07-07T22:29:05.476Z,15.67
2023-07-07T22:31:33.161Z,15.65
2023-07-07T22:34:00.928Z,15.62
2023-07-07T22:36:28.911Z,15.60
2023-07-07T22:38:56.822Z,15.57
2023-07-07T22:41:26.858Z,15.55
2023-07-07T22:43:54.959Z,15.52
2023-07-07T22:46:31.804Z,15.49
2023-07-07T22:48:59.813Z,15.46
2023-07-07T22:51:28.832Z,15.42
2023-07-07T22:53:56.688Z,15.41
2023-07-07T22:56:30.274Z,15.37
2023-07-07T22:58:59.348Z,15.35
2023-07-07T23:01:28.649Z,15.32
2023-07-07T23:04:06.426Z,15.30
2023-07-07T23:06:35.149Z,15.28
2023-07-07T23:09:44.068Z,15.25
2023-07-07T23:12:17.616Z,15.20
2023-07-07T23:14:46.927Z,15.18
2023-07-07T23:17:35.500Z,15.17
2023-07-07T23:20:25.886Z,15.18
2023-07-07T23:22:55.900Z,15.15
2023-07-07T23:25:25.729Z,15.14
2023-07-07T23:28:03.375Z,15.14
2023-07-07T23:30:40.046Z,15.13
2023-07-07T23:33:13.693Z,15.12
2023-07-07T23:35:53.392Z,15.11
2023-07-07T23:38:21.826Z,15.09
2023-07-07T23:40:49.534Z,15.07
2023-07-07T23:43:17.743Z,15.05
2023-07-07T23:45:46.625Z,15.05
2023-07-07T23:48:16.731Z,15.05
2023-07-07T23:50:58.005Z,15.05
2023-07-07T23:53:26.491Z,15.02
2023-07-07T23:55:55.638Z,15.01
2023-07-07T23:58:25.694Z,15.00
